sensor_id;sensor_type;location;lat;lon;timestamp;temperature;humidity
36594;DHT22;22603;47.900;8.146;2024-03-02T00:02:10;2.20;99.90
36594;DHT22;22603;47.900;8.146;2024-03-02T00:04:57;2.10;99.90
36594;DHT22;22603;47.900;8.146;2024-03-02T00:07:45;2.20;99.90
36594;DHT22;22603;47.900;8.146;2024-03-02T00:10:37;2.20;99.90
36594;DHT22;22603;47.900;8.146;2024-03-02T00:13:26;2.10;99.90
36594;DHT22;22603;47.900;8.146;2024-03-02T00:16:15;2.10;99.90
36594;DHT22;22603;47.900;8.146;2024-03-02T00:19:03;2.20;99.90
36594;DHT22;22603;47.900;8.146;2024-03-02T00:21:52;2.30;99.90
36594;DHT22;22603;47.900;8.146;2024-03-02T00:24:39;2.20;99.90
36594;DHT22;22603;47.900;8.146;2024-03-02T00:27:26;2.20;99.90
36594;DHT22;22603;47.900;8.146;2024-03-02T00:30:50;2.30;99.90
36594;DHT22;22603;47.900;8.146;2024-03-02T00:33:41;2.10;99.90
36594;DHT22;22603;47.900;8.146;2024-03-02T00:36:28;2.10;99.90
36594;DHT22;22603;47.900;8.146;2024-03-02T00:39:16;2.00;99.90
36594;DHT22;22603;47.900;8.146;2024-03-02T00:42:04;1.80;99.90
36594;DHT22;22603;47.900;8.146;2024-03-02T00:44:51;1.80;99.90
36594;DHT22;22603;47.900;8.146;2024-03-02T00:47:39;1.70;99.90
36594;DHT22;22603;47.900;8.146;2024-03-02T00:50:27;1.60;99.90
36594;DHT22;22603;47.900;8.146;2024-03-02T00:53:23;1.50;99.90
36594;DHT22;22603;47.900;8.146;2024-03-02T00:56:11;1.50;99.90
36594;DHT22;22603;47.900;8.146;2024-03-02T00:58:57;1.40;99.90
36594;DHT22;22603;47.900;8.146;2024-03-02T01:01:44;1.40;99.90
36594;DHT22;22603;47.900;8.146;2024-03-02T01:04:31;1.30;99.90
36594;DHT22;22603;47.900;8.146;2024-03-02T01:07:19;1.20;99.90
36594;DHT22;22603;47.900;8.146;2024-03-02T01:10:07;1.20;99.90
36594;DHT22;22603;47.900;8.146;2024-03-02T01:12:55;1.10;99.90
36594;DHT22;22603;47.900;8.146;2024-03-02T01:15:41;1.10;99.90
36594;DHT22;22603;47.900;8.146;2024-03-02T01:18:29;1.00;99.90
36594;DHT22;22603;47.900;8.146;2024-03-02T01:21:16;1.00;99.90
36594;DHT22;22603;47.900;8.146;2024-03-02T01:24:04;0.90;99.90
36594;DHT22;22603;47.900;8.146;2024-03-02T01:26:51;0.80;99.90
36594;DHT22;22603;47.900;8.146;2024-03-02T01:29:38;0.80;99.90
36594;DHT22;22603;47.900;8.146;2024-03-02T01:32:25;0.80;99.90
36594;DHT22;22603;47.900;8.146;2024-03-02T01:35:12;0.80;99.90
36594;DHT22;22603;47.900;8.146;2024-03-02T01:38:00;0.70;99.90
36594;DHT22;22603;47.900;8.146;2024-03-02T01:40:48;0.70;99.90
36594;DHT22;22603;47.900;8.146;2024-03-02T01:43:35;0.60;99.90
36594;DHT22;22603;47.900;8.146;2024-03-02T01:46:26;0.50;99.90
36594;DHT22;22603;47.900;8.146;2024-03-02T01:49:12;0.40;99.90
36594;DHT22;22603;47.900;8.146;2024-03-02T01:51:59;0.40;99.90
36594;DHT22;22603;47.900;8.146;2024-03-02T01:54:46;0.40;99.90
36594;DHT22;22603;47.900;8.146;2024-03-02T01:57:34;0.40;99.90
36594;DHT22;22603;47.900;8.146;2024-03-02T02:00:21;0.30;99.90
36594;DHT22;22603;47.900;8.146;2024-03-02T02:03:10;0.40;99.90
36594;DHT22;22603;47.900;8.146;2024-03-02T02:05:56;0.30;99.90
36594;DHT22;22603;47.900;8.146;2024-03-02T02:08:43;0.20;99.90
36594;DHT22;22603;47.900;8.146;2024-03-02T02:11:30;0.20;99.90
36594;DHT22;22603;47.900;8.146;2024-03-02T02:14:19;0.10;99.90
36594;DHT22;22603;47.900;8.146;2024-03-02T02:17:06;0.10;99.90
36594;DHT22;22603;47.900;8.146;2024-03-02T02:19:53;0.10;99.90
36594;DHT22;22603;47.900;8.146;2024-03-02T02:22:54;0.10;99.90
36594;DHT22;22603;47.900;8.146;2024-03-02T02:25:40;0.00;99.90
36594;DHT22;22603;47.900;8.146;2024-03-02T02:28:27;0.00;99.90
36594;DHT22;22603;47.900;8.146;2024-03-02T02:31:14;0.00;99.90
36594;DHT22;22603;47.900;8.146;2024-03-02T02:34:01;0.00;99.90
36594;DHT22;22603;47.900;8.146;2024-03-02T02:36:47;0.00;99.90
36594;DHT22;22603;47.900;8.146;2024-03-02T02:39:36;-0.10;99.90
36594;DHT22;22603;47.900;8.146;2024-03-02T02:42:23;-0.10;99.90
36594;DHT22;22603;47.900;8.146;2024-03-02T02:45:09;-0.10;99.90
36594;DHT22;22603;47.900;8.146;2024-03-02T02:47:56;-0.20;99.90
36594;DHT22;22603;47.900;8.146;2024-03-02T02:50:42;-0.20;99.90
36594;DHT22;22603;47.900;8.146;2024-03-02T02:53:29;-0.20;99.90
36594;DHT22;22603;47.900;8.146;2024-03-02T02:56:17;-0.20;99.90
36594;DHT22;22603;47.900;8.146;2024-03-02T02:59:04;-0.20;99.90
36594;DHT22;22603;47.900;8.146;2024-03-02T03:01:51;-0.20;99.90
36594;DHT22;22603;47.900;8.146;2024-03-02T03:04:40;-0.30;99.90
36594;DHT22;22603;47.900;8.146;2024-03-02T03:07:27;-0.30;99.90
36594;DHT22;22603;47.900;8.146;2024-03-02T03:10:13;-0.40;99.90
36594;DHT22;22603;47.900;8.146;2024-03-02T03:13:02;-0.30;99.90
36594;DHT22;22603;47.900;8.146;2024-03-02T03:15:49;-0.40;99.90
36594;DHT22;22603;47.900;8.146;2024-03-02T03:18:36;-0.40;99.90
36594;DHT22;22603;47.900;8.146;2024-03-02T03:21:23;-0.40;99.90
36594;DHT22;22603;47.900;8.146;2024-03-02T03:24:10;-0.50;99.90
36594;DHT22;22603;47.900;8.146;2024-03-02T03:26:56;-0.50;99.90
36594;DHT22;22603;47.900;8.146;2024-03-02T03:29:44;-0.60;99.90
36594;DHT22;22603;47.900;8.146;2024-03-02T03:32:31;-0.60;99.90
36594;DHT22;22603;47.900;8.146;2024-03-02T03:35:17;-0.50;99.90
36594;DHT22;22603;47.900;8.146;2024-03-02T03:38:04;-0.60;99.90
36594;DHT22;22603;47.900;8.146;2024-03-02T03:40:51;-0.60;99.90
36594;DHT22;22603;47.900;8.146;2024-03-02T03:43:38;-0.60;99.90
36594;DHT22;22603;47.900;8.146;2024-03-02T03:46:26;-0.60;99.90
36594;DHT22;22603;47.900;8.146;2024-03-02T03:49:13;-0.60;99.90
36594;DHT22;22603;47.900;8.146;2024-03-02T03:51:59;-0.70;99.90
36594;DHT22;22603;47.900;8.146;2024-03-02T03:54:46;-0.70;99.90
36594;DHT22;22603;47.900;8.146;2024-03-02T03:57:33;-0.80;99.90
36594;DHT22;22603;47.900;8.146;2024-03-02T04:00:20;-0.80;99.90
36594;DHT22;22603;47.900;8.146;2024-03-02T04:03:08;-0.80;99.90
36594;DHT22;22603;47.900;8.146;2024-03-02T04:05:55;-0.70;99.90
36594;DHT22;22603;47.900;8.146;2024-03-02T04:08:42;-0.80;99.90
36594;DHT22;22603;47.900;8.146;2024-03-02T04:11:29;-0.80;99.90
36594;DHT22;22603;47.900;8.146;2024-03-02T04:14:16;-0.90;99.90
36594;DHT22;22603;47.900;8.146;2024-03-02T04:17:02;-0.90;99.90
36594;DHT22;22603;47.900;8.146;2024-03-02T04:19:52;-0.90;99.90
36594;DHT22;22603;47.900;8.146;2024-03-02T04:22:39;-0.90;99.90
36594;DHT22;22603;47.900;8.146;2024-03-02T04:25:25;-0.90;99.90
36594;DHT22;22603;47.900;8.146;2024-03-02T04:28:12;-0.90;99.90
36594;DHT22;22603;47.900;8.146;2024-03-02T04:30:59;-0.90;99.90
36594;DHT22;22603;47.900;8.146;2024-03-02T04:33:45;-1.00;99.90
36594;DHT22;22603;47.900;8.146;2024-03-02T04:36:34;-1.00;99.90
36594;DHT22;22603;47.900;8.146;2024-03-02T04:39:21;-1.00;99.90
36594;DHT22;22603;47.900;8.146;2024-03-02T04:42:07;-1.00;99.90
36594;DHT22;22603;47.900;8.146;2024-03-02T04:44:54;-1.00;99.90
36594;DHT22;22603;47.900;8.146;2024-03-02T04:47:41;-1.00;99.90
36594;DHT22;22603;47.900;8.146;2024-03-02T04:50:30;-1.00;99.90
36594;DHT22;22603;47.900;8.146;2024-03-02T04:53:18;-1.00;99.90
36594;DHT22;22603;47.900;8.146;2024-03-02T04:56:05;-1.10;99.90
36594;DHT22;22603;47.900;8.146;2024-03-02T04:59:24;-1.00;99.90
36594;DHT22;22603;47.900;8.146;2024-03-02T05:02:11;-1.10;99.90
36594;DHT22;22603;47.900;8.146;2024-03-02T05:04:59;-1.10;99.90
36594;DHT22;22603;47.900;8.146;2024-03-02T05:07:46;-1.10;99.90
36594;DHT22;22603;47.900;8.146;2024-03-02T05:10:33;-1.10;99.90
36594;DHT22;22603;47.900;8.146;2024-03-02T05:13:21;-1.10;99.90
36594;DHT22;22603;47.900;8.146;2024-03-02T05:16:08;-1.20;99.90
36594;DHT22;22603;47.900;8.146;2024-03-02T05:18:55;-1.20;99.90
36594;DHT22;22603;47.900;8.146;2024-03-02T05:21:42;-1.20;99.90
36594;DHT22;22603;47.900;8.146;2024-03-02T05:24:28;-1.20;99.90
36594;DHT22;22603;47.900;8.146;2024-03-02T05:27:16;-1.20;99.90
36594;DHT22;22603;47.900;8.146;2024-03-02T05:30:04;-1.10;99.90
36594;DHT22;22603;47.900;8.146;2024-03-02T05:32:52;-1.10;99.90
36594;DHT22;22603;47.900;8.146;2024-03-02T05:35:39;-1.00;99.90
36594;DHT22;22603;47.900;8.146;2024-03-02T05:38:25;-0.90;99.90
36594;DHT22;22603;47.900;8.146;2024-03-02T05:41:12;-0.80;99.90
36594;DHT22;22603;47.900;8.146;2024-03-02T05:44:00;-0.70;99.90
36594;DHT22;22603;47.900;8.146;2024-03-02T05:46:47;-0.70;99.90
36594;DHT22;22603;47.900;8.146;2024-03-02T05:49:33;-0.70;99.90
36594;DHT22;22603;47.900;8.146;2024-03-02T05:52:20;-0.60;99.90
36594;DHT22;22603;47.900;8.146;2024-03-02T05:55:07;-0.60;99.90
36594;DHT22;22603;47.900;8.146;2024-03-02T05:57:54;-0.60;99.90
36594;DHT22;22603;47.900;8.146;2024-03-02T06:00:58;-0.60;99.90
36594;DHT22;22603;47.900;8.146;2024-03-02T06:03:46;-0.60;99.90
36594;DHT22;22603;47.900;8.146;2024-03-02T06:06:34;-0.60;99.90
36594;DHT22;22603;47.900;8.146;2024-03-02T06:09:21;-0.70;99.90
36594;DHT22;22603;47.900;8.146;2024-03-02T06:12:10;-0.70;99.90
36594;DHT22;22603;47.900;8.146;2024-03-02T06:14:56;-0.60;99.90
36594;DHT22;22603;47.900;8.146;2024-03-02T06:17:45;-0.60;99.90
36594;DHT22;22603;47.900;8.146;2024-03-02T06:20:32;-0.70;99.90
36594;DHT22;22603;47.900;8.146;2024-03-02T06:23:22;-0.60;99.90
36594;DHT22;22603;47.900;8.146;2024-03-02T06:26:08;-0.60;99.90
36594;DHT22;22603;47.900;8.146;2024-03-02T06:28:55;-0.60;99.90
36594;DHT22;22603;47.900;8.146;2024-03-02T06:31:42;-0.70;99.90
36594;DHT22;22603;47.900;8.146;2024-03-02T06:34:30;-0.60;99.90
36594;DHT22;22603;47.900;8.146;2024-03-02T06:37:17;-0.60;99.90
36594;DHT22;22603;47.900;8.146;2024-03-02T06:40:04;-0.60;99.90
36594;DHT22;22603;47.900;8.146;2024-03-02T06:42:53;-0.50;99.90
36594;DHT22;22603;47.900;8.146;2024-03-02T06:45:40;-0.50;99.90
36594;DHT22;22603;47.900;8.146;2024-03-02T06:48:27;-0.40;99.90
36594;DHT22;22603;47.900;8.146;2024-03-02T06:51:17;-0.30;99.90
36594;DHT22;22603;47.900;8.146;2024-03-02T06:54:04;-0.20;99.90
36594;DHT22;22603;47.900;8.146;2024-03-02T06:56:51;-0.10;99.90
36594;DHT22;22603;47.900;8.146;2024-03-02T06:59:37;-0.10;99.90
36594;DHT22;22603;47.900;8.146;2024-03-02T07:02:24;0.00;99.90
36594;DHT22;22603;47.900;8.146;2024-03-02T07:05:12;0.10;99.90
36594;DHT22;22603;47.900;8.146;2024-03-02T07:08:01;0.20;99.90
36594;DHT22;22603;47.900;8.146;2024-03-02T07:10:48;0.20;99.90
36594;DHT22;22603;47.900;8.146;2024-03-02T07:13:35;0.20;99.90
36594;DHT22;22603;47.900;8.146;2024-03-02T07:16:21;0.30;99.90
36594;DHT22;22603;47.900;8.146;2024-03-02T07:19:15;0.30;99.90
36594;DHT22;22603;47.900;8.146;2024-03-02T07:22:06;0.30;99.90
36594;DHT22;22603;47.900;8.146;2024-03-02T07:24:54;0.40;99.90
36594;DHT22;22603;47.900;8.146;2024-03-02T07:27:41;0.40;99.90
36594;DHT22;22603;47.900;8.146;2024-03-02T07:30:29;0.60;99.90
36594;DHT22;22603;47.900;8.146;2024-03-02T07:33:18;0.70;99.90
36594;DHT22;22603;47.900;8.146;2024-03-02T07:36:07;0.90;99.90
36594;DHT22;22603;47.900;8.146;2024-03-02T07:38:54;1.20;99.90
36594;DHT22;22603;47.900;8.146;2024-03-02T07:41:43;1.70;99.90
36594;DHT22;22603;47.900;8.146;2024-03-02T07:44:31;2.70;99.90
36594;DHT22;22603;47.900;8.146;2024-03-02T07:47:18;3.50;99.90
36594;DHT22;22603;47.900;8.146;2024-03-02T07:50:05;4.40;99.90
36594;DHT22;22603;47.900;8.146;2024-03-02T07:52:52;5.30;99.90
36594;DHT22;22603;47.900;8.146;2024-03-02T07:55:39;5.90;99.90
36594;DHT22;22603;47.900;8.146;2024-03-02T07:58:28;6.60;99.90
36594;DHT22;22603;47.900;8.146;2024-03-02T08:01:15;6.80;99.90
36594;DHT22;22603;47.900;8.146;2024-03-02T08:04:03;7.40;99.90
36594;DHT22;22603;47.900;8.146;2024-03-02T08:06:50;7.80;99.90
36594;DHT22;22603;47.900;8.146;2024-03-02T08:09:37;8.20;99.90
36594;DHT22;22603;47.900;8.146;2024-03-02T08:12:24;8.20;99.90
36594;DHT22;22603;47.900;8.146;2024-03-02T08:15:12;8.70;99.90
36594;DHT22;22603;47.900;8.146;2024-03-02T08:17:59;9.40;99.90
36594;DHT22;22603;47.900;8.146;2024-03-02T08:20:46;9.90;99.90
36594;DHT22;22603;47.900;8.146;2024-03-02T08:23:33;8.90;99.90
36594;DHT22;22603;47.900;8.146;2024-03-02T08:26:20;8.10;99.90
36594;DHT22;22603;47.900;8.146;2024-03-02T08:29:07;8.40;99.90
36594;DHT22;22603;47.900;8.146;2024-03-02T08:31:55;9.40;99.90
36594;DHT22;22603;47.900;8.146;2024-03-02T08:34:41;9.50;99.90
36594;DHT22;22603;47.900;8.146;2024-03-02T08:37:28;8.90;99.90
36594;DHT22;22603;47.900;8.146;2024-03-02T08:40:15;7.90;99.90
36594;DHT22;22603;47.900;8.146;2024-03-02T08:43:04;7.50;99.90
36594;DHT22;22603;47.900;8.146;2024-03-02T08:45:51;7.00;99.90
36594;DHT22;22603;47.900;8.146;2024-03-02T08:48:39;7.50;99.90
36594;DHT22;22603;47.900;8.146;2024-03-02T08:51:26;8.10;99.90
36594;DHT22;22603;47.900;8.146;2024-03-02T08:54:13;8.80;99.90
36594;DHT22;22603;47.900;8.146;2024-03-02T08:57:00;8.80;99.90
36594;DHT22;22603;47.900;8.146;2024-03-02T08:59:46;9.00;99.90
36594;DHT22;22603;47.900;8.146;2024-03-02T09:02:33;10.40;99.90
36594;DHT22;22603;47.900;8.146;2024-03-02T09:05:22;10.70;99.90
36594;DHT22;22603;47.900;8.146;2024-03-02T09:08:08;11.70;99.90
36594;DHT22;22603;47.900;8.146;2024-03-02T09:10:56;11.40;99.90
36594;DHT22;22603;47.900;8.146;2024-03-02T09:13:43;10.30;99.90
36594;DHT22;22603;47.900;8.146;2024-03-02T09:16:30;8.90;99.90
36594;DHT22;22603;47.900;8.146;2024-03-02T09:19:17;8.80;99.90
36594;DHT22;22603;47.900;8.146;2024-03-02T09:22:05;8.90;99.90
36594;DHT22;22603;47.900;8.146;2024-03-02T09:24:52;10.30;99.90
36594;DHT22;22603;47.900;8.146;2024-03-02T09:27:39;10.50;99.90
36594;DHT22;22603;47.900;8.146;2024-03-02T09:30:26;10.10;99.90
36594;DHT22;22603;47.900;8.146;2024-03-02T09:33:13;9.00;99.90
36594;DHT22;22603;47.900;8.146;2024-03-02T09:36:03;9.90;99.90
36594;DHT22;22603;47.900;8.146;2024-03-02T09:38:51;10.50;99.90
36594;DHT22;22603;47.900;8.146;2024-03-02T09:41:38;11.00;99.90
36594;DHT22;22603;47.900;8.146;2024-03-02T09:44:25;11.70;99.90
36594;DHT22;22603;47.900;8.146;2024-03-02T09:47:13;11.50;99.90
36594;DHT22;22603;47.900;8.146;2024-03-02T09:50:00;11.20;99.90
36594;DHT22;22603;47.900;8.146;2024-03-02T09:52:48;11.30;99.90
36594;DHT22;22603;47.900;8.146;2024-03-02T09:55:37;11.90;99.90
36594;DHT22;22603;47.900;8.146;2024-03-02T09:58:28;11.20;99.90
36594;DHT22;22603;47.900;8.146;2024-03-02T10:01:15;10.90;99.90
36594;DHT22;22603;47.900;8.146;2024-03-02T10:04:02;11.70;99.90
36594;DHT22;22603;47.900;8.146;2024-03-02T10:06:51;12.30;99.90
36594;DHT22;22603;47.900;8.146;2024-03-02T10:09:39;12.50;99.90
36594;DHT22;22603;47.900;8.146;2024-03-02T10:12:27;13.30;99.90
36594;DHT22;22603;47.900;8.146;2024-03-02T10:15:24;12.90;99.90
36594;DHT22;22603;47.900;8.146;2024-03-02T10:18:12;13.60;99.90
36594;DHT22;22603;47.900;8.146;2024-03-02T10:21:13;13.70;99.90
36594;DHT22;22603;47.900;8.146;2024-03-02T10:24:06;13.40;99.90
36594;DHT22;22603;47.900;8.146;2024-03-02T10:26:53;13.70;99.90
36594;DHT22;22603;47.900;8.146;2024-03-02T10:29:46;13.40;99.90
36594;DHT22;22603;47.900;8.146;2024-03-02T10:32:33;13.70;99.90
36594;DHT22;22603;47.900;8.146;2024-03-02T10:35:20;13.30;99.90
36594;DHT22;22603;47.900;8.146;2024-03-02T10:38:07;13.60;99.90
36594;DHT22;22603;47.900;8.146;2024-03-02T10:40:53;13.50;99.90
36594;DHT22;22603;47.900;8.146;2024-03-02T10:43:41;12.80;99.90
36594;DHT22;22603;47.900;8.146;2024-03-02T10:46:30;13.40;99.90
36594;DHT22;22603;47.900;8.146;2024-03-02T10:49:17;14.60;99.90
36594;DHT22;22603;47.900;8.146;2024-03-02T10:52:04;14.90;99.90
36594;DHT22;22603;47.900;8.146;2024-03-02T10:54:51;15.10;99.90
36594;DHT22;22603;47.900;8.146;2024-03-02T10:57:42;15.70;99.90
36594;DHT22;22603;47.900;8.146;2024-03-02T11:00:33;16.20;99.90
36594;DHT22;22603;47.900;8.146;2024-03-02T11:03:21;16.70;99.90
36594;DHT22;22603;47.900;8.146;2024-03-02T11:06:08;16.80;99.90
36594;DHT22;22603;47.900;8.146;2024-03-02T11:08:58;17.60;99.90
36594;DHT22;22603;47.900;8.146;2024-03-02T11:11:53;18.10;99.90
36594;DHT22;22603;47.900;8.146;2024-03-02T11:14:41;17.80;99.90
36594;DHT22;22603;47.900;8.146;2024-03-02T11:17:29;15.70;99.90
36594;DHT22;22603;47.900;8.146;2024-03-02T11:20:18;15.90;99.90
36594;DHT22;22603;47.900;8.146;2024-03-02T11:23:07;15.50;99.90
36594;DHT22;22603;47.900;8.146;2024-03-02T11:25:54;15.40;99.90
36594;DHT22;22603;47.900;8.146;2024-03-02T11:28:41;15.60;99.90
36594;DHT22;22603;47.900;8.146;2024-03-02T11:31:57;16.10;99.90
36594;DHT22;22603;47.900;8.146;2024-03-02T11:34:47;16.80;99.90
36594;DHT22;22603;47.900;8.146;2024-03-02T11:37:36;16.90;99.90
36594;DHT22;22603;47.900;8.146;2024-03-02T11:40:24;15.60;99.90
36594;DHT22;22603;47.900;8.146;2024-03-02T11:43:12;16.80;99.90
36594;DHT22;22603;47.900;8.146;2024-03-02T11:45:59;16.90;99.90
36594;DHT22;22603;47.900;8.146;2024-03-02T11:48:50;16.40;99.90
36594;DHT22;22603;47.900;8.146;2024-03-02T11:51:38;16.40;99.90
36594;DHT22;22603;47.900;8.146;2024-03-02T11:54:39;17.60;99.90
36594;DHT22;22603;47.900;8.146;2024-03-02T11:57:27;17.70;99.90
36594;DHT22;22603;47.900;8.146;2024-03-02T12:00:17;17.00;99.90
36594;DHT22;22603;47.900;8.146;2024-03-02T12:03:05;17.50;99.90
36594;DHT22;22603;47.900;8.146;2024-03-02T12:05:54;17.30;99.90
36594;DHT22;22603;47.900;8.146;2024-03-02T12:08:41;17.20;99.90
36594;DHT22;22603;47.900;8.146;2024-03-02T12:11:30;17.50;99.90
36594;DHT22;22603;47.900;8.146;2024-03-02T12:14:16;16.80;99.90
36594;DHT22;22603;47.900;8.146;2024-03-02T12:17:04;16.40;99.90
36594;DHT22;22603;47.900;8.146;2024-03-02T12:19:52;15.90;99.90
36594;DHT22;22603;47.900;8.146;2024-03-02T12:22:40;14.40;99.90
36594;DHT22;22603;47.900;8.146;2024-03-02T12:25:28;14.40;99.90
36594;DHT22;22603;47.900;8.146;2024-03-02T12:28:18;14.80;99.90
36594;DHT22;22603;47.900;8.146;2024-03-02T12:31:05;15.20;99.90
36594;DHT22;22603;47.900;8.146;2024-03-02T12:33:52;15.70;99.90
36594;DHT22;22603;47.900;8.146;2024-03-02T12:36:40;15.20;99.90
36594;DHT22;22603;47.900;8.146;2024-03-02T12:39:27;15.20;99.90
36594;DHT22;22603;47.900;8.146;2024-03-02T12:42:15;14.90;99.90
36594;DHT22;22603;47.900;8.146;2024-03-02T12:45:04;15.10;99.90
36594;DHT22;22603;47.900;8.146;2024-03-02T12:47:51;15.60;99.90
36594;DHT22;22603;47.900;8.146;2024-03-02T12:50:39;14.70;99.90
36594;DHT22;22603;47.900;8.146;2024-03-02T12:53:26;14.80;99.90
36594;DHT22;22603;47.900;8.146;2024-03-02T12:56:12;15.30;99.90
36594;DHT22;22603;47.900;8.146;2024-03-02T12:59:00;14.90;99.90
36594;DHT22;22603;47.900;8.146;2024-03-02T13:01:55;15.10;99.90
36594;DHT22;22603;47.900;8.146;2024-03-02T13:04:43;15.60;99.90
36594;DHT22;22603;47.900;8.146;2024-03-02T13:07:30;15.50;99.90
36594;DHT22;22603;47.900;8.146;2024-03-02T13:10:19;16.00;99.90
36594;DHT22;22603;47.900;8.146;2024-03-02T13:13:06;15.80;99.90
36594;DHT22;22603;47.900;8.146;2024-03-02T13:15:55;15.80;99.90
36594;DHT22;22603;47.900;8.146;2024-03-02T13:18:44;16.00;99.90
36594;DHT22;22603;47.900;8.146;2024-03-02T13:21:31;15.50;99.90
36594;DHT22;22603;47.900;8.146;2024-03-02T13:24:18;15.20;99.90
36594;DHT22;22603;47.900;8.146;2024-03-02T13:27:05;14.90;99.90
36594;DHT22;22603;47.900;8.146;2024-03-02T13:29:52;14.90;99.90
36594;DHT22;22603;47.900;8.146;2024-03-02T13:32:39;15.30;99.90
36594;DHT22;22603;47.900;8.146;2024-03-02T13:35:27;14.40;99.90
36594;DHT22;22603;47.900;8.146;2024-03-02T13:38:14;14.40;99.90
36594;DHT22;22603;47.900;8.146;2024-03-02T13:41:01;14.00;99.90
36594;DHT22;22603;47.900;8.146;2024-03-02T13:43:48;13.70;99.90
36594;DHT22;22603;47.900;8.146;2024-03-02T13:46:38;13.70;99.90
36594;DHT22;22603;47.900;8.146;2024-03-02T13:49:24;13.60;99.90
36594;DHT22;22603;47.900;8.146;2024-03-02T13:52:15;13.40;99.90
36594;DHT22;22603;47.900;8.146;2024-03-02T13:55:04;13.30;99.90
36594;DHT22;22603;47.900;8.146;2024-03-02T13:57:51;13.10;99.90
36594;DHT22;22603;47.900;8.146;2024-03-02T14:00:38;13.20;99.90
36594;DHT22;22603;47.900;8.146;2024-03-02T14:03:27;13.30;99.90
36594;DHT22;22603;47.900;8.146;2024-03-02T14:06:16;12.80;99.90
36594;DHT22;22603;47.900;8.146;2024-03-02T14:09:04;12.40;99.90
36594;DHT22;22603;47.900;8.146;2024-03-02T14:11:51;12.10;99.90
36594;DHT22;22603;47.900;8.146;2024-03-02T14:14:38;12.10;99.90
36594;DHT22;22603;47.900;8.146;2024-03-02T14:17:25;12.00;99.90
36594;DHT22;22603;47.900;8.146;2024-03-02T14:20:12;11.80;99.90
36594;DHT22;22603;47.900;8.146;2024-03-02T14:22:59;11.60;99.90
36594;DHT22;22603;47.900;8.146;2024-03-02T14:25:48;11.30;99.90
36594;DHT22;22603;47.900;8.146;2024-03-02T14:28:35;11.30;99.90
36594;DHT22;22603;47.900;8.146;2024-03-02T14:31:27;11.10;99.90
36594;DHT22;22603;47.900;8.146;2024-03-02T14:34:13;11.10;99.90
36594;DHT22;22603;47.900;8.146;2024-03-02T14:37:01;11.00;99.90
36594;DHT22;22603;47.900;8.146;2024-03-02T14:39:48;10.90;99.90
36594;DHT22;22603;47.900;8.146;2024-03-02T14:42:37;10.60;99.90
36594;DHT22;22603;47.900;8.146;2024-03-02T14:45:24;10.60;99.90
36594;DHT22;22603;47.900;8.146;2024-03-02T14:48:10;10.60;99.90
36594;DHT22;22603;47.900;8.146;2024-03-02T14:50:58;10.80;99.90
36594;DHT22;22603;47.900;8.146;2024-03-02T14:53:45;10.90;99.90
36594;DHT22;22603;47.900;8.146;2024-03-02T14:56:31;10.80;99.90
36594;DHT22;22603;47.900;8.146;2024-03-02T14:59:20;11.00;99.90
36594;DHT22;22603;47.900;8.146;2024-03-02T15:02:08;11.00;99.90
36594;DHT22;22603;47.900;8.146;2024-03-02T15:04:54;10.90;99.90
36594;DHT22;22603;47.900;8.146;2024-03-02T15:07:41;10.80;99.90
36594;DHT22;22603;47.900;8.146;2024-03-02T15:10:28;10.90;99.90
36594;DHT22;22603;47.900;8.146;2024-03-02T15:13:15;10.60;99.90
36594;DHT22;22603;47.900;8.146;2024-03-02T15:16:04;10.70;99.90
36594;DHT22;22603;47.900;8.146;2024-03-02T15:18:51;10.70;99.90
36594;DHT22;22603;47.900;8.146;2024-03-02T15:21:38;10.70;99.90
36594;DHT22;22603;47.900;8.146;2024-03-02T15:24:25;10.80;99.90
36594;DHT22;22603;47.900;8.146;2024-03-02T15:27:12;10.80;99.90
36594;DHT22;22603;47.900;8.146;2024-03-02T15:29:58;10.70;99.90
36594;DHT22;22603;47.900;8.146;2024-03-02T15:32:48;10.50;99.90
36594;DHT22;22603;47.900;8.146;2024-03-02T15:35:35;10.40;99.90
36594;DHT22;22603;47.900;8.146;2024-03-02T15:38:22;10.50;99.90
36594;DHT22;22603;47.900;8.146;2024-03-02T15:41:17;10.60;99.90
36594;DHT22;22603;47.900;8.146;2024-03-02T15:44:04;10.50;99.90
36594;DHT22;22603;47.900;8.146;2024-03-02T15:46:52;10.50;99.90
36594;DHT22;22603;47.900;8.146;2024-03-02T15:49:40;10.40;99.90
36594;DHT22;22603;47.900;8.146;2024-03-02T15:52:27;10.40;99.90
36594;DHT22;22603;47.900;8.146;2024-03-02T15:55:13;10.60;99.90
36594;DHT22;22603;47.900;8.146;2024-03-02T15:58:01;10.70;99.90
36594;DHT22;22603;47.900;8.146;2024-03-02T16:00:49;10.80;99.90
36594;DHT22;22603;47.900;8.146;2024-03-02T16:03:36;10.70;99.90
36594;DHT22;22603;47.900;8.146;2024-03-02T16:06:25;10.80;99.90
36594;DHT22;22603;47.900;8.146;2024-03-02T16:09:11;11.00;99.90
36594;DHT22;22603;47.900;8.146;2024-03-02T16:11:58;11.10;99.90
36594;DHT22;22603;47.900;8.146;2024-03-02T16:14:45;11.00;99.90
36594;DHT22;22603;47.900;8.146;2024-03-02T16:17:32;10.80;99.90
36594;DHT22;22603;47.900;8.146;2024-03-02T16:20:19;10.60;99.90
36594;DHT22;22603;47.900;8.146;2024-03-02T16:23:07;10.30;99.90
36594;DHT22;22603;47.900;8.146;2024-03-02T16:25:54;10.30;99.90
36594;DHT22;22603;47.900;8.146;2024-03-02T16:28:41;10.00;99.90
36594;DHT22;22603;47.900;8.146;2024-03-02T16:31:27;10.00;99.90
36594;DHT22;22603;47.900;8.146;2024-03-02T16:34:14;10.00;99.90
36594;DHT22;22603;47.900;8.146;2024-03-02T16:37:01;9.90;99.90
36594;DHT22;22603;47.900;8.146;2024-03-02T16:39:50;9.80;99.90
36594;DHT22;22603;47.900;8.146;2024-03-02T16:42:38;9.70;99.90
36594;DHT22;22603;47.900;8.146;2024-03-02T16:45:25;9.60;99.90
36594;DHT22;22603;47.900;8.146;2024-03-02T16:48:11;9.60;99.90
36594;DHT22;22603;47.900;8.146;2024-03-02T16:50:58;9.40;99.90
36594;DHT22;22603;47.900;8.146;2024-03-02T16:53:45;9.30;99.90
36594;DHT22;22603;47.900;8.146;2024-03-02T16:56:39;9.30;99.90
36594;DHT22;22603;47.900;8.146;2024-03-02T16:59:26;9.20;99.90
36594;DHT22;22603;47.900;8.146;2024-03-02T17:02:12;9.20;99.90
36594;DHT22;22603;47.900;8.146;2024-03-02T17:04:59;9.10;99.90
36594;DHT22;22603;47.900;8.146;2024-03-02T17:07:46;9.00;99.90
36594;DHT22;22603;47.900;8.146;2024-03-02T17:10:33;8.90;99.90
36594;DHT22;22603;47.900;8.146;2024-03-02T17:13:21;8.80;99.90
36594;DHT22;22603;47.900;8.146;2024-03-02T17:16:10;8.70;99.90
36594;DHT22;22603;47.900;8.146;2024-03-02T17:18:59;8.60;99.90
36594;DHT22;22603;47.900;8.146;2024-03-02T17:21:48;8.50;99.90
36594;DHT22;22603;47.900;8.146;2024-03-02T17:24:35;8.40;99.90
36594;DHT22;22603;47.900;8.146;2024-03-02T17:27:22;8.30;99.90
36594;DHT22;22603;47.900;8.146;2024-03-02T17:30:11;8.20;99.90
36594;DHT22;22603;47.900;8.146;2024-03-02T17:32:59;8.20;99.90
36594;DHT22;22603;47.900;8.146;2024-03-02T17:35:46;8.10;99.90
36594;DHT22;22603;47.900;8.146;2024-03-02T17:38:34;8.10;99.90
36594;DHT22;22603;47.900;8.146;2024-03-02T17:41:21;8.00;99.90
36594;DHT22;22603;47.900;8.146;2024-03-02T17:44:08;7.90;99.90
36594;DHT22;22603;47.900;8.146;2024-03-02T17:46:57;7.90;99.90